Time;durP1;ratioP1;P1;durP2;ratioP2;P2;SDS_P1;SDS_P2;PMS_P1;PMS_P2;Temp;Humidity;BMP_temperature;BMP_pressure;BME280_temperature;BME280_humidity;BME280_pressure;Samples;Min_cycle;Max_cycle;Signal;HPM_P1;HPM_P2
2022/04/03 00:00:27;;;;;;;;;17.00;17.00;;;;;8.08;40.88;101641.25;2103869;28;47674;-55
2022/04/03 00:01:28;;;;;;;;;20.50;19.50;;;;;8.07;41.02;101648.28;2103435;28;47875;-56
2022/04/03 00:02:28;;;;;;;;;19.00;18.60;;;;;8.06;41.01;101643.00;2098474;27;47636;-55
2022/04/03 00:03:29;;;;;;;;;17.50;16.00;;;;;8.05;40.83;101639.47;2101920;27;47339;-58
2022/04/03 00:04:29;;;;;;;;;21.25;19.75;;;;;8.03;41.16;101641.25;2112648;27;48122;-55
2022/04/03 00:05:37;;;;;;;;;18.00;16.75;;;;;8.03;41.15;101645.63;2094922;28;47227;-55
2022/04/03 00:06:38;;;;;;;;;18.40;15.60;;;;;8.01;41.07;101644.75;2091941;28;47626;-53
2022/04/03 00:07:38;;;;;;;;;18.00;18.00;;;;;8.00;41.12;101646.50;2095594;28;47484;-56
2022/04/03 00:08:39;;;;;;;;;18.25;18.25;;;;;7.98;41.02;101641.19;2103176;28;47470;-57
2022/04/03 00:09:39;;;;;;;;;20.75;20.25;;;;;7.97;41.22;101642.06;2100716;28;46415;-57
2022/04/03 00:10:41;;;;;;;;;18.75;18.75;;;;;7.98;41.42;101649.13;2103028;28;47397;-57
2022/04/03 00:11:42;;;;;;;;;18.00;18.00;;;;;7.98;41.50;101650.88;2102505;27;47884;-58
2022/04/03 00:12:46;;;;;;;;;20.25;19.00;;;;;8.00;41.13;101648.25;2103710;28;48145;-58
2022/04/03 00:13:46;;;;;;;;;20.20;18.40;;;;;7.99;41.25;101647.38;2105932;27;47368;-57
2022/04/03 00:14:47;;;;;;;;;25.50;21.50;;;;;7.97;41.31;101650.00;2100187;27;47719;-55
2022/04/03 00:15:47;;;;;;;;;17.00;16.00;;;;;7.96;41.30;101647.38;2105316;27;47571;-57
2022/04/03 00:16:47;;;;;;;;;17.50;17.00;;;;;7.95;41.20;101645.59;2102490;27;47951;-55
2022/04/03 00:17:48;;;;;;;;;17.50;16.50;;;;;7.93;41.39;101642.06;2101058;27;47662;-55
2022/04/03 00:18:49;;;;;;;;;18.00;17.75;;;;;7.92;41.45;101646.47;2106529;27;47104;-55
2022/04/03 00:19:49;;;;;;;;;16.80;15.80;;;;;7.93;41.53;101647.34;2099831;27;47738;-54
2022/04/03 00:20:51;;;;;;;;;19.75;19.00;;;;;7.91;41.40;101643.84;2103831;27;47347;-56
2022/04/03 00:21:51;;;;;;;;;18.80;17.60;;;;;7.91;41.63;101644.72;2111036;27;47852;-54
2022/04/03 00:22:52;;;;;;;;;19.75;17.75;;;;;7.91;41.51;101654.41;2100477;27;47266;-56
2022/04/03 00:23:53;;;;;;;;;16.50;15.25;;;;;7.91;41.70;101651.75;2105808;27;47640;-55
2022/04/03 00:24:53;;;;;;;;;16.25;14.25;;;;;7.90;41.43;101656.16;2101427;27;48066;-55
2022/04/03 00:25:54;;;;;;;;;15.25;14.25;;;;;7.89;41.69;101648.22;2103631;27;47777;-56
2022/04/03 00:26:55;;;;;;;;;18.80;18.60;;;;;7.88;41.48;101647.34;2107770;27;47584;-56
2022/04/03 00:27:55;;;;;;;;;19.25;18.25;;;;;7.89;41.70;101650.88;2103706;27;47921;-54
2022/04/03 00:28:56;;;;;;;;;18.25;18.25;;;;;7.88;41.73;101651.75;2104706;27;47708;-56
2022/04/03 00:29:57;;;;;;;;;21.00;18.50;;;;;7.88;41.34;101649.13;2106576;27;47945;-56
2022/04/03 00:30:57;;;;;;;;;17.50;17.50;;;;;7.87;41.52;101649.97;2101219;27;47600;-55
2022/04/03 00:31:58;;;;;;;;;16.00;15.00;;;;;7.85;41.68;101649.06;2105879;27;47694;-54
2022/04/03 00:32:58;;;;;;;;;16.50;16.50;;;;;7.84;41.73;101650.84;2103165;27;47396;-55
2022/04/03 00:33:59;;;;;;;;;16.25;16.00;;;;;7.84;41.49;101642.91;2103425;27;48096;-56
2022/04/03 00:34:59;;;;;;;;;18.00;16.50;;;;;7.84;41.74;101648.19;2106940;27;47429;-54
2022/04/03 00:35:59;;;;;;;;;16.75;14.25;;;;;7.85;41.64;101646.44;2098603;27;48414;-56
2022/04/03 00:37:00;;;;;;;;;18.00;14.75;;;;;7.85;41.74;101649.06;2104154;27;47600;-57
2022/04/03 00:38:00;;;;;;;;;17.00;14.75;;;;;7.85;41.67;101649.97;2106455;27;45734;-54
2022/04/03 00:39:01;;;;;;;;;17.75;15.50;;;;;7.84;41.60;101650.84;2101325;27;47674;-51
2022/04/03 00:40:03;;;;;;;;;11.50;10.00;;;;;7.83;41.65;101642.91;2105812;27;47494;-55
2022/04/03 00:41:04;;;;;;;;;18.00;18.00;;;;;7.82;41.58;101651.72;2103574;27;47978;-55
2022/04/03 00:42:06;;;;;;;;;15.50;15.25;;;;;7.82;41.75;101646.44;2102845;27;48035;-55
2022/04/03 00:43:08;;;;;;;;;17.00;17.00;;;;;7.81;41.76;101647.31;2106897;27;47630;-55
2022/04/03 00:44:09;;;;;;;;;15.40;15.40;;;;;7.81;41.67;101648.19;2093428;28;47877;-55
2022/04/03 00:45:10;;;;;;;;;14.60;14.60;;;;;7.80;41.90;101643.78;2091638;28;48459;-55
2022/04/03 00:46:15;;;;;;;;;19.25;17.25;;;;;7.81;41.74;101647.31;2095339;28;47605;-57
2022/04/03 00:47:17;;;;;;;;;15.80;15.00;;;;;7.82;41.62;101654.34;2101439;28;48147;-56
2022/04/03 00:48:17;;;;;;;;;16.20;15.00;;;;;7.82;41.99;101649.06;2103538;28;47801;-56
2022/04/03 00:49:18;;;;;;;;;14.50;13.75;;;;;7.82;41.71;101652.59;2085552;28;47500;-55
2022/04/03 00:50:18;;;;;;;;;17.75;15.25;;;;;7.81;41.90;101653.47;2078899;28;47124;-56
2022/04/03 00:51:19;;;;;;;;;14.25;14.25;;;;;7.81;41.77;101649.94;2098141;28;45541;-57
2022/04/03 00:52:20;;;;;;;;;15.25;15.25;;;;;7.80;41.85;101650.81;2102783;28;47829;-56
2022/04/03 00:53:20;;;;;;;;;14.20;13.00;;;;;7.78;41.69;101650.81;2101328;28;48087;-56
2022/04/03 00:54:21;;;;;;;;;17.50;16.75;;;;;7.76;42.07;101652.59;2103636;28;47669;-56
2022/04/03 00:55:21;;;;;;;;;16.00;13.75;;;;;7.76;42.00;101654.34;2103651;28;47798;-56
2022/04/03 00:56:23;;;;;;;;;16.75;14.25;;;;;7.74;41.68;101646.38;2103800;28;47178;-55
2022/04/03 00:57:25;;;;;;;;;15.80;15.80;;;;;7.73;41.81;101652.53;2103616;28;47698;-55
2022/04/03 00:58:25;;;;;;;;;15.80;15.80;;;;;7.72;41.96;101648.13;2102857;28;47700;-57
2022/04/03 00:59:27;;;;;;;;;16.50;16.50;;;;;7.71;41.89;101654.28;2103722;28;47579;-57
2022/04/03 01:00:27;;;;;;;;;20.00;16.00;;;;;7.71;42.37;101645.50;2103701;28;48124;-53
2022/04/03 01:01:28;;;;;;;;;17.75;16.25;;;;;7.72;41.83;101652.53;2103575;28;47722;-54
2022/04/03 01:02:30;;;;;;;;;15.50;15.50;;;;;7.72;42.16;101649.91;2103599;28;47446;-56
2022/04/03 01:03:31;;;;;;;;;15.60;15.60;;;;;7.72;42.07;101644.63;2103645;28;47754;-54
2022/04/03 01:04:31;;;;;;;;;18.00;16.75;;;;;7.72;41.87;101652.53;2103740;28;47645;-55
2022/04/03 01:05:32;;;;;;;;;16.25;14.50;;;;;7.70;42.22;101649.00;2095231;28;47734;-56
2022/04/03 01:06:33;;;;;;;;;18.50;18.00;;;;;7.67;42.06;101648.13;2098417;28;48325;-55
2022/04/03 01:07:34;;;;;;;;;15.80;15.80;;;;;7.67;42.18;101647.25;2102918;28;47905;-56
2022/04/03 01:08:34;;;;;;;;;14.25;12.50;;;;;7.66;42.26;101645.47;2103347;28;47409;-57
2022/04/03 01:09:36;;;;;;;;;16.50;16.50;;;;;7.66;42.19;101642.84;2101669;28;47660;-54
2022/04/03 01:10:40;;;;;;;;;15.80;15.80;;;;;7.66;42.41;101637.56;2097335;28;48276;-55
2022/04/03 01:11:40;;;;;;;;;14.20;14.20;;;;;7.67;42.53;101649.88;2103045;28;47734;-56
2022/04/03 01:12:44;;;;;;;;;16.25;16.25;;;;;7.67;42.41;101649.88;2096499;28;47292;-55
2022/04/03 01:13:46;;;;;;;;;15.60;13.60;;;;;7.68;42.29;101643.72;2100705;28;47337;-55
2022/04/03 01:14:47;;;;;;;;;14.80;14.80;;;;;7.68;42.24;101641.09;2099826;28;48284;-56
2022/04/03 01:15:56;;;;;;;;;15.00;13.50;;;;;7.67;42.38;101637.56;2103507;28;48351;-55
2022/04/03 01:16:56;;;;;;;;;18.20;18.00;;;;;7.67;42.25;101640.19;2096465;28;47639;-57
2022/04/03 01:17:57;;;;;;;;;19.75;17.25;;;;;7.68;42.42;101641.09;2099675;28;47910;-56
2022/04/03 01:18:58;;;;;;;;;16.75;15.75;;;;;7.67;42.24;101637.56;2100192;28;45739;-57
2022/04/03 01:19:58;;;;;;;;;12.60;12.20;;;;;7.68;42.41;101641.97;2103571;28;48334;-54
2022/04/03 01:20:59;;;;;;;;;16.75;16.75;;;;;7.68;42.49;101636.69;2103549;28;47732;-56
2022/04/03 01:21:59;;;;;;;;;15.75;15.75;;;;;7.67;42.37;101644.59;2103555;28;47320;-56
2022/04/03 01:23:00;;;;;;;;;15.75;14.25;;;;;7.67;42.34;101642.84;2103554;28;47376;-51
2022/04/03 01:24:01;;;;;;;;;17.25;16.25;;;;;7.66;42.58;101643.72;2103516;28;47603;-56
2022/04/03 01:25:01;;;;;;;;;18.00;16.50;;;;;7.64;42.39;101642.84;2093492;28;47075;-55
2022/04/03 01:26:02;;;;;;;;;16.25;16.25;;;;;7.64;43.01;101645.47;2077144;28;47386;-55
2022/04/03 01:27:03;;;;;;;;;16.60;16.60;;;;;7.64;42.40;101644.59;2083805;28;47340;-55
2022/04/03 01:28:04;;;;;;;;;16.75;15.25;;;;;7.64;42.37;101639.31;2103465;28;47439;-57
2022/04/03 01:29:04;;;;;;;;;14.75;13.50;;;;;7.65;42.55;101639.31;2097133;28;47941;-57
2022/04/03 01:30:06;;;;;;;;;14.50;14.50;;;;;7.65;42.53;101641.06;2094435;28;47307;-56
2022/04/03 01:31:08;;;;;;;;;15.80;15.80;;;;;7.64;42.49;101642.84;2077071;28;46719;-53
2022/04/03 01:32:10;;;;;;;;;16.60;15.60;;;;;7.63;42.55;101648.13;2085037;28;47777;-56
2022/04/03 01:33:10;;;;;;;;;12.00;11.00;;;;;7.61;42.38;101644.56;2102155;27;47076;-57
2022/04/03 01:34:11;;;;;;;;;16.75;16.75;;;;;7.60;42.63;101643.66;2103384;28;47714;-54
2022/04/03 01:35:11;;;;;;;;;17.75;16.00;;;;;7.59;42.62;101643.66;2098540;28;47729;-56
2022/04/03 01:36:13;;;;;;;;;14.25;13.75;;;;;7.58;42.90;101640.13;2100430;28;47228;-54
2022/04/03 01:37:13;;;;;;;;;13.80;12.20;;;;;7.58;42.57;101644.53;2094168;28;47677;-56
2022/04/03 01:38:14;;;;;;;;;17.00;16.00;;;;;7.58;42.60;101641.91;2094289;28;47069;-52
2022/04/03 01:39:14;;;;;;;;;13.00;12.50;;;;;7.57;42.48;101645.41;2103266;28;47846;-54
2022/04/03 01:40:15;;;;;;;;;17.50;17.50;;;;;7.56;42.75;101641.91;2103354;28;47953;-57
2022/04/03 01:41:15;;;;;;;;;16.75;15.00;;;;;7.56;42.47;101641.00;2101921;27;47180;-57
2022/04/03 01:42:16;;;;;;;;;12.00;12.00;;;;;7.55;42.80;101637.50;2101337;28;46684;-56
2022/04/03 01:43:17;;;;;;;;;15.00;14.60;;;;;7.55;42.90;101641.91;2095413;28;48079;-56
2022/04/03 01:44:20;;;;;;;;;17.50;17.50;;;;;7.54;43.06;101641.00;2103252;28;47598;-54
2022/04/03 01:45:21;;;;;;;;;13.60;13.60;;;;;7.55;42.74;101642.78;2103391;28;48029;-55
2022/04/03 01:46:21;;;;;;;;;15.25;14.75;;;;;7.55;42.92;101649.81;2104206;28;47516;-56
2022/04/03 01:47:22;;;;;;;;;14.50;14.25;;;;;7.54;42.92;101642.78;2104852;28;47690;-55
2022/04/03 01:48:22;;;;;;;;;16.50;16.50;;;;;7.55;42.88;101639.25;2104837;28;47977;-58
2022/04/03 01:49:23;;;;;;;;;12.75;12.00;;;;;7.56;42.87;101646.28;2105076;28;47687;-54
2022/04/03 01:50:23;;;;;;;;;15.00;15.00;;;;;7.56;42.70;101643.66;2102228;28;47495;-56
2022/04/03 01:51:23;;;;;;;;;15.50;15.50;;;;;7.57;42.96;101645.41;2091810;28;46972;-56
2022/04/03 01:52:24;;;;;;;;;15.75;13.50;;;;;7.56;42.94;101641.91;2095710;28;47788;-57
2022/04/03 01:53:25;;;;;;;;;15.50;15.25;;;;;7.56;42.99;101641.00;2104596;28;47841;-56
2022/04/03 01:54:26;;;;;;;;;16.40;14.20;;;;;7.54;43.00;101641.00;2104642;28;45781;-55
2022/04/03 01:55:27;;;;;;;;;13.75;12.75;;;;;7.55;43.16;101640.13;2104723;28;47333;-57
2022/04/03 01:56:28;;;;;;;;;14.80;14.60;;;;;7.55;43.02;101640.13;2105006;27;47711;-56
2022/04/03 01:57:28;;;;;;;;;11.25;10.00;;;;;7.56;43.10;101641.00;2104146;28;47899;-56
2022/04/03 01:58:29;;;;;;;;;14.25;12.25;;;;;7.56;43.04;101641.91;2104747;28;47875;-54
2022/04/03 01:59:30;;;;;;;;;15.20;15.20;;;;;7.56;43.23;101647.19;2105047;27;47194;-54
2022/04/03 02:00:30;;;;;;;;;14.00;14.00;;;;;7.56;43.01;101641.91;2102156;28;47367;-56
2022/04/03 02:01:32;;;;;;;;;13.00;13.00;;;;;7.56;43.11;101643.66;2097855;28;47962;-58
2022/04/03 02:02:33;;;;;;;;;13.80;13.80;;;;;7.55;43.10;101640.13;2096629;28;48062;-54
2022/04/03 02:03:33;;;;;;;;;17.00;12.25;;;;;7.55;42.92;101642.78;2101040;28;48082;-53
2022/04/03 02:04:34;;;;;;;;;16.00;16.00;;;;;7.56;43.18;101638.38;2104981;28;46396;-55
2022/04/03 02:05:34;;;;;;;;;16.50;14.00;;;;;7.55;43.30;101642.78;2104506;28;47546;-56
2022/04/03 02:06:35;;;;;;;;;14.00;14.00;;;;;7.58;43.33;101647.19;2104955;28;47790;-56
2022/04/03 02:07:35;;;;;;;;;14.50;14.50;;;;;7.59;43.13;101641.03;2104910;28;47290;-55
2022/04/03 02:08:36;;;;;;;;;14.25;13.00;;;;;7.59;43.29;101646.31;2104685;28;47263;-53
2022/04/03 02:09:36;;;;;;;;;18.25;17.25;;;;;7.60;43.08;101648.06;2104612;28;47565;-53
2022/04/03 02:10:37;;;;;;;;;13.25;13.25;;;;;7.60;43.24;101645.44;2104803;27;47502;-56
2022/04/03 02:11:38;;;;;;;;;10.50;10.50;;;;;7.59;43.35;101643.66;2103439;28;47752;-53
2022/04/03 02:12:39;;;;;;;;;14.80;14.00;;;;;7.60;43.24;101641.03;2104469;27;47727;-53
2022/04/03 02:13:40;;;;;;;;;16.00;14.60;;;;;7.60;43.25;101648.06;2104859;27;48169;-54
2022/04/03 02:14:40;;;;;;;;;16.75;13.00;;;;;7.58;43.33;101637.50;2104295;27;46648;-56
2022/04/03 02:15:41;;;;;;;;;12.50;11.75;;;;;7.59;43.46;101648.94;2091791;28;47966;-55
2022/04/03 02:16:41;;;;;;;;;14.00;13.50;;;;;7.58;43.21;101637.50;2091733;28;47651;-56
2022/04/03 02:17:41;;;;;;;;;18.25;15.75;;;;;7.57;43.43;101638.38;2102680;27;46979;-57
2022/04/03 02:18:42;;;;;;;;;16.75;15.00;;;;;7.58;43.44;101637.50;2095997;28;47327;-56
2022/04/03 02:19:42;;;;;;;;;15.75;14.25;;;;;7.59;43.51;101647.19;2098683;28;47570;-56
2022/04/03 02:20:43;;;;;;;;;17.75;13.75;;;;;7.59;43.17;101636.63;2110557;27;47648;-58
2022/04/03 02:21:43;;;;;;;;;18.75;15.75;;;;;7.60;43.31;101638.38;2104988;27;48193;-55
2022/04/03 02:22:43;;;;;;;;;17.25;15.00;;;;;7.60;43.61;101633.09;2106876;27;47663;-52
2022/04/03 02:23:44;;;;;;;;;13.50;13.25;;;;;7.60;43.44;101638.38;2107093;27;47999;-56
2022/04/03 02:24:44;;;;;;;;;13.25;12.75;;;;;7.62;43.46;101638.38;2105462;27;47784;-56
2022/04/03 02:25:49;;;;;;;;;15.25;13.75;;;;;7.61;43.09;101639.25;2104711;27;47670;-57
2022/04/03 02:26:50;;;;;;;;;18.60;17.00;;;;;7.61;43.59;101637.50;2106248;27;47900;-52
2022/04/03 02:27:51;;;;;;;;;16.25;14.50;;;;;7.61;43.30;101639.25;2106679;27;47830;-56
2022/04/03 02:28:52;;;;;;;;;13.00;11.60;;;;;7.60;43.34;101637.50;2112023;27;48008;-53
2022/04/03 02:29:53;;;;;;;;;14.40;13.40;;;;;7.58;43.68;101645.44;2105241;27;47838;-55
2022/04/03 02:30:53;;;;;;;;;13.00;13.00;;;;;7.58;43.57;101649.81;2100721;28;47982;-57
2022/04/03 02:31:54;;;;;;;;;19.25;18.00;;;;;7.56;43.53;101644.53;2099520;28;47933;-55
2022/04/03 02:32:54;;;;;;;;;15.00;12.00;;;;;7.57;43.68;101646.31;2105168;27;47777;-57
2022/04/03 02:33:54;;;;;;;;;15.25;13.50;;;;;7.56;43.63;101646.28;2112153;27;47009;-57
2022/04/03 02:34:55;;;;;;;;;12.50;12.00;;;;;7.55;43.54;101645.41;2107495;27;47896;-55
2022/04/03 02:35:55;;;;;;;;;16.00;14.75;;;;;7.55;43.69;101639.25;2106508;27;48101;-54
2022/04/03 02:36:56;;;;;;;;;13.00;11.75;;;;;7.55;43.61;101648.06;2111995;27;47491;-56
2022/04/03 02:37:56;;;;;;;;;16.75;16.75;;;;;7.55;43.46;101648.06;2105148;27;47547;-57
2022/04/03 02:38:57;;;;;;;;;13.00;12.25;;;;;7.56;43.71;101643.66;2110404;27;47533;-56
2022/04/03 02:39:57;;;;;;;;;14.60;14.60;;;;;7.56;43.46;101644.53;2110985;27;47587;-56
2022/04/03 02:40:58;;;;;;;;;13.50;13.50;;;;;7.56;43.62;101644.53;2107086;27;47605;-54
2022/04/03 02:41:58;;;;;;;;;16.00;13.25;;;;;7.57;43.92;101645.41;2112083;27;48082;-57
2022/04/03 02:42:59;;;;;;;;;16.00;14.00;;;;;7.56;43.84;101635.72;2087062;28;47839;-56
2022/04/03 02:43:59;;;;;;;;;16.00;15.00;;;;;7.55;43.50;101640.13;2082222;28;47523;-55
2022/04/03 02:45:00;;;;;;;;;16.50;15.50;;;;;7.55;43.67;101644.53;2110643;27;47949;-56
2022/04/03 02:46:00;;;;;;;;;13.00;12.75;;;;;7.54;43.66;101633.09;2104378;28;47387;-57
2022/04/03 02:47:01;;;;;;;;;15.00;13.25;;;;;7.54;43.56;101646.28;2104718;28;48111;-56
2022/04/03 02:48:01;;;;;;;;;14.00;12.50;;;;;7.53;43.90;101636.59;2089633;28;47237;-57
2022/04/03 02:49:02;;;;;;;;;15.75;15.25;;;;;7.54;43.82;101642.78;2087701;28;47862;-56
2022/04/03 02:50:04;;;;;;;;;12.00;12.00;;;;;7.54;43.88;101637.50;2099072;28;47482;-55
2022/04/03 02:51:05;;;;;;;;;17.40;15.80;;;;;7.54;43.98;101640.13;2104291;28;47869;-55
2022/04/03 02:52:05;;;;;;;;;14.25;14.25;;;;;7.53;43.91;101636.59;2103304;28;48130;-56
2022/04/03 02:53:06;;;;;;;;;11.75;11.75;;;;;7.54;43.69;101643.66;2104218;28;47948;-56
2022/04/03 02:54:07;;;;;;;;;16.75;14.00;;;;;7.54;43.99;101645.41;2104368;28;47564;-55
2022/04/03 02:55:07;;;;;;;;;16.25;16.00;;;;;7.55;43.63;101647.19;2100231;28;47508;-54
2022/04/03 02:56:08;;;;;;;;;13.50;13.50;;;;;7.54;43.76;101645.41;2086217;28;47942;-52
2022/04/03 02:57:08;;;;;;;;;10.75;10.75;;;;;7.54;43.63;101646.28;2082142;28;47682;-54
2022/04/03 02:58:09;;;;;;;;;11.75;11.00;;;;;7.54;43.93;101648.94;2098013;28;47420;-55
2022/04/03 02:59:09;;;;;;;;;13.00;12.50;;;;;7.53;43.71;101643.66;2104015;28;48390;-56
2022/04/03 03:00:17;;;;;;;;;16.75;14.50;;;;;7.51;43.69;101651.56;2104065;28;47568;-53
2022/04/03 03:01:17;;;;;;;;;15.80;15.20;;;;;7.52;44.17;101650.69;2079453;28;47548;-56
2022/04/03 03:02:18;;;;;;;;;12.75;12.75;;;;;7.50;44.00;101652.44;2088156;28;47797;-55
2022/04/03 03:03:18;;;;;;;;;12.00;10.00;;;;;7.51;43.86;101648.03;2104025;28;48435;-56
2022/04/03 03:04:18;;;;;;;;;14.25;13.00;;;;;7.50;44.05;101652.44;2104168;28;48568;-55
2022/04/03 03:05:19;;;;;;;;;12.75;12.75;;;;;7.51;44.02;101650.69;2104290;28;47947;-56
2022/04/03 03:06:20;;;;;;;;;12.00;12.00;;;;;7.51;43.77;101658.59;2104504;28;47339;-57
2022/04/03 03:07:21;;;;;;;;;14.50;13.75;;;;;7.50;44.07;101649.81;2104373;28;47438;-56
2022/04/03 03:08:21;;;;;;;;;11.00;10.60;;;;;7.51;44.17;101654.22;2103259;28;47586;-55
2022/04/03 03:09:22;;;;;;;;;13.50;13.50;;;;;7.50;43.86;101654.19;2098168;28;48207;-56
2022/04/03 03:10:23;;;;;;;;;12.00;12.00;;;;;7.50;44.23;101656.84;2104541;28;47339;-58
2022/04/03 03:11:23;;;;;;;;;11.25;11.25;;;;;7.49;44.20;101657.69;2104489;28;47426;-55
2022/04/03 03:12:23;;;;;;;;;17.00;13.25;;;;;7.48;44.33;101651.53;2102250;28;45798;-56
2022/04/03 03:13:24;;;;;;;;;12.00;11.25;;;;;7.47;44.23;101655.03;2100713;28;46770;-56
2022/04/03 03:14:24;;;;;;;;;13.75;13.25;;;;;7.47;44.08;101654.16;2096213;28;47941;-56
2022/04/03 03:15:25;;;;;;;;;17.75;15.75;;;;;7.45;44.14;101659.44;2102321;28;47666;-56
2022/04/03 03:16:25;;;;;;;;;15.50;15.50;;;;;7.44;44.00;101652.38;2104300;27;47369;-56
2022/04/03 03:17:26;;;;;;;;;13.75;12.75;;;;;7.44;44.00;101659.44;2104749;27;47897;-56
2022/04/03 03:18:26;;;;;;;;;16.75;14.25;;;;;7.42;44.12;101653.25;2104489;27;47915;-56
2022/04/03 03:19:27;;;;;;;;;18.75;15.75;;;;;7.41;44.50;101657.66;2104351;28;47379;-55
2022/04/03 03:20:27;;;;;;;;;16.75;16.75;;;;;7.41;44.35;101655.03;2104330;28;47674;-56
2022/04/03 03:21:28;;;;;;;;;13.75;13.75;;;;;7.41;44.17;101657.66;2104417;28;47153;-54
2022/04/03 03:22:28;;;;;;;;;13.00;12.00;;;;;7.40;44.31;101662.94;2100164;28;47351;-56
2022/04/03 03:23:29;;;;;;;;;14.50;14.50;;;;;7.38;44.35;101662.94;2102113;28;47449;-56
2022/04/03 03:24:30;;;;;;;;;15.50;13.25;;;;;7.37;44.09;101661.16;2104053;28;47759;-55
2022/04/03 03:25:30;;;;;;;;;15.50;15.50;;;;;7.36;44.53;101662.88;2101858;28;47839;-56
2022/04/03 03:26:30;;;;;;;;;10.25;10.25;;;;;7.36;44.28;101662.00;2099806;28;47490;-56
2022/04/03 03:27:32;;;;;;;;;12.00;12.00;;;;;7.36;44.48;101662.88;2103093;28;45718;-56
2022/04/03 03:28:32;;;;;;;;;16.80;16.00;;;;;7.36;44.36;101668.16;2102740;27;48189;-56
2022/04/03 03:29:32;;;;;;;;;15.00;13.75;;;;;7.36;44.53;101670.81;2104337;28;46787;-53
2022/04/03 03:30:34;;;;;;;;;15.25;15.25;;;;;7.37;44.32;101663.81;2095291;28;47307;-56
2022/04/03 03:31:34;;;;;;;;;13.60;13.60;;;;;7.37;44.45;101669.09;2095234;28;48080;-57
2022/04/03 03:32:36;;;;;;;;;13.00;11.75;;;;;7.37;44.54;101663.81;2103988;28;47694;-55
2022/04/03 03:33:36;;;;;;;;;18.20;15.40;;;;;7.36;44.54;101665.53;2104202;28;46780;-51
2022/04/03 03:34:37;;;;;;;;;12.25;12.25;;;;;7.36;44.66;101670.81;2103941;28;47599;-56
2022/04/03 03:35:37;;;;;;;;;13.00;13.00;;;;;7.37;44.54;101672.59;2103985;27;48132;-56
2022/04/03 03:36:38;;;;;;;;;16.25;15.25;;;;;7.35;44.80;101669.03;2100755;28;47937;-52
2022/04/03 03:37:39;;;;;;;;;9.75;9.50;;;;;7.35;44.52;101661.13;2098537;28;47431;-56
2022/04/03 03:38:40;;;;;;;;;11.40;11.20;;;;;7.37;44.60;101672.59;2103284;28;48013;-57
2022/04/03 03:39:40;;;;;;;;;15.20;14.40;;;;;7.38;44.44;101660.28;2104138;28;47703;-57
2022/04/03 03:40:41;;;;;;;;;11.75;10.00;;;;;7.40;44.58;101670.84;2097317;28;47904;-54
2022/04/03 03:41:41;;;;;;;;;15.00;15.00;;;;;7.40;44.46;101666.47;2104269;28;47417;-56
2022/04/03 03:42:42;;;;;;;;;12.50;12.50;;;;;7.40;44.56;101670.84;2085518;28;47542;-52
2022/04/03 03:43:43;;;;;;;;;14.40;14.40;;;;;7.40;44.31;101668.22;2086304;28;47567;-54
2022/04/03 03:44:44;;;;;;;;;11.20;10.80;;;;;7.41;44.41;101668.22;2099133;28;48075;-53
2022/04/03 03:45:44;;;;;;;;;16.25;12.00;;;;;7.40;44.39;101662.94;2104390;28;47628;-57
2022/04/03 03:46:44;;;;;;;;;16.00;13.75;;;;;7.38;44.48;101666.47;2099390;28;47326;-55
2022/04/03 03:47:46;;;;;;;;;12.75;12.50;;;;;7.38;44.78;101663.81;2104333;28;47577;-54
2022/04/03 03:48:46;;;;;;;;;12.00;12.00;;;;;7.38;44.85;101665.56;2104140;27;47836;-56
2022/04/03 03:49:47;;;;;;;;;14.25;14.25;;;;;7.38;44.71;101673.50;2104058;28;47386;-55
2022/04/03 03:50:47;;;;;;;;;12.25;12.00;;;;;7.38;44.59;101668.22;2104125;28;47783;-54
2022/04/03 03:51:47;;;;;;;;;11.00;11.00;;;;;7.37;44.34;101664.69;2099463;28;47568;-54
2022/04/03 03:52:48;;;;;;;;;12.50;12.00;;;;;7.38;44.52;101670.84;2104178;28;47456;-56
2022/04/03 03:53:48;;;;;;;;;14.50;13.25;;;;;7.38;44.54;101671.75;2104240;28;47464;-56
2022/04/03 03:54:50;;;;;;;;;12.00;11.50;;;;;7.38;44.79;101668.22;2103955;28;47961;-54
2022/04/03 03:55:50;;;;;;;;;13.20;13.20;;;;;7.38;44.51;101671.75;2103121;28;48348;-57
2022/04/03 03:56:51;;;;;;;;;12.50;12.50;;;;;7.40;44.48;101671.75;2095983;28;47371;-57
2022/04/03 03:57:51;;;;;;;;;15.25;13.00;;;;;7.39;44.30;101675.25;2101416;28;47742;-57
2022/04/03 03:58:52;;;;;;;;;12.00;10.75;;;;;7.38;44.30;101674.38;2104143;28;48079;-52
2022/04/03 03:59:52;;;;;;;;;12.25;12.25;;;;;7.38;44.52;101679.66;2098789;28;47630;-55
2022/04/03 04:00:53;;;;;;;;;13.75;12.25;;;;;7.37;44.60;101667.31;2099512;28;47525;-55
2022/04/03 04:01:53;;;;;;;;;14.75;14.75;;;;;7.36;44.37;101675.22;2103964;28;47466;-57
2022/04/03 04:02:54;;;;;;;;;14.00;14.00;;;;;7.35;44.40;101670.81;2100070;28;47482;-55
2022/04/03 04:03:54;;;;;;;;;10.00;9.50;;;;;7.34;44.76;101669.03;2097289;28;48152;-57
2022/04/03 04:04:54;;;;;;;;;11.50;11.50;;;;;7.34;44.50;101667.28;2104130;28;47514;-56
2022/04/03 04:05:55;;;;;;;;;15.25;12.75;;;;;7.34;44.54;101672.56;2099107;28;47747;-57
2022/04/03 04:06:56;;;;;;;;;12.25;12.00;;;;;7.34;44.84;101667.28;2099368;28;48417;-58
2022/04/03 04:07:56;;;;;;;;;14.60;14.60;;;;;7.33;44.54;101669.91;2104260;28;47703;-54
2022/04/03 04:08:56;;;;;;;;;7.00;7.00;;;;;7.33;44.74;101673.44;2104071;27;46636;-55
2022/04/03 04:09:57;;;;;;;;;11.75;11.50;;;;;7.33;44.78;101665.53;2102893;28;47875;-54
2022/04/03 04:10:58;;;;;;;;;18.00;16.00;;;;;7.31;44.79;101669.91;2095705;28;47806;-57
2022/04/03 04:11:58;;;;;;;;;14.75;11.75;;;;;7.31;44.13;101671.66;2084656;28;47452;-57
2022/04/03 04:12:58;;;;;;;;;13.50;12.00;;;;;7.30;44.67;101673.44;2077710;28;47355;-56
2022/04/03 04:13:59;;;;;;;;;13.50;13.50;;;;;7.30;44.83;101669.91;2093841;28;48105;-55
2022/04/03 04:14:59;;;;;;;;;13.50;11.75;;;;;7.28;44.86;101674.28;2099206;28;48326;-55
2022/04/03 04:16:00;;;;;;;;;12.75;12.75;;;;;7.28;45.11;101677.81;2085923;28;47865;-56
2022/04/03 04:17:00;;;;;;;;;15.00;14.50;;;;;7.28;44.63;101671.66;2085234;28;48261;-56
2022/04/03 04:18:00;;;;;;;;;10.75;10.75;;;;;7.27;44.73;101678.69;2103950;28;48135;-52
2022/04/03 04:19:01;;;;;;;;;11.50;11.50;;;;;7.26;44.70;101676.03;2103891;28;47961;-55
2022/04/03 04:20:04;;;;;;;;;15.25;13.75;;;;;7.26;44.60;101676.03;2094957;28;47230;-56
2022/04/03 04:21:05;;;;;;;;;12.80;12.80;;;;;7.26;44.57;101681.31;2095109;28;47973;-52
2022/04/03 04:22:06;;;;;;;;;11.60;11.00;;;;;7.26;44.76;101676.94;2103996;28;47884;-57
2022/04/03 04:23:06;;;;;;;;;12.00;12.00;;;;;7.25;44.88;101684.84;2104005;28;47680;-55
2022/04/03 04:24:07;;;;;;;;;11.00;10.00;;;;;7.24;44.60;101688.31;2080993;28;47204;-56
2022/04/03 04:25:08;;;;;;;;;14.00;12.25;;;;;7.22;44.58;101687.44;2081721;28;47974;-56
2022/04/03 04:26:09;;;;;;;;;12.40;12.00;;;;;7.19;44.79;101693.59;2098168;28;48096;-54
2022/04/03 04:27:10;;;;;;;;;12.00;12.00;;;;;7.19;45.07;101688.31;2103950;28;46760;-56
2022/04/03 04:28:11;;;;;;;;;14.80;14.80;;;;;7.18;44.83;101691.81;2099682;28;47340;-57
2022/04/03 04:29:12;;;;;;;;;9.80;9.80;;;;;7.19;44.55;101690.06;2103959;28;47993;-56
2022/04/03 04:30:14;;;;;;;;;15.75;14.75;;;;;7.18;45.03;101694.47;2103880;28;47598;-55
2022/04/03 04:31:15;;;;;;;;;10.60;10.60;;;;;7.17;44.87;101689.16;2103715;28;48076;-56
2022/04/03 04:32:16;;;;;;;;;10.20;10.20;;;;;7.18;44.86;101690.94;2085701;28;48078;-56
2022/04/03 04:33:16;;;;;;;;;17.25;15.00;;;;;7.16;44.66;101696.22;2085572;28;47725;-58
2022/04/03 04:34:17;;;;;;;;;13.00;13.00;;;;;7.15;44.78;101697.09;2089629;28;47731;-55
2022/04/03 04:35:17;;;;;;;;;11.50;11.50;;;;;7.15;44.59;101696.19;2094924;28;48032;-56
2022/04/03 04:36:18;;;;;;;;;12.00;11.50;;;;;7.14;44.78;101699.72;2103212;28;47400;-54
2022/04/03 04:37:19;;;;;;;;;12.75;11.00;;;;;7.13;44.93;101687.38;2102639;28;47430;-54
2022/04/03 04:38:19;;;;;;;;;11.20;11.20;;;;;7.12;45.06;101697.06;2103659;28;48148;-57
2022/04/03 04:39:21;;;;;;;;;10.25;10.25;;;;;7.11;45.19;101697.03;2103693;28;47945;-55